sensor_id;sensor_type;location;lat;lon;timestamp;P1;durP1;ratioP1;P2;durP2;ratioP2
34585;SDS011;20816;50.950;11.108;2022-08-19T00:01:29;18.17;;;9.55;;
34585;SDS011;20816;50.950;11.108;2022-08-19T00:04:00;13.73;;;9.90;;
34585;SDS011;20816;50.950;11.108;2022-08-19T00:06:29;12.82;;;8.80;;
34585;SDS011;20816;50.950;11.108;2022-08-19T00:08:57;15.20;;;10.18;;
34585;SDS011;20816;50.950;11.108;2022-08-19T00:11:26;18.45;;;9.75;;
34585;SDS011;20816;50.950;11.108;2022-08-19T00:13:54;17.90;;;9.55;;
34585;SDS011;20816;50.950;11.108;2022-08-19T00:16:24;13.95;;;10.13;;
34585;SDS011;20816;50.950;11.108;2022-08-19T00:18:52;13.70;;;9.00;;
34585;SDS011;20816;50.950;11.108;2022-08-19T00:21:22;13.50;;;8.68;;
34585;SDS011;20816;50.950;11.108;2022-08-19T00:23:51;10.90;;;7.22;;
34585;SDS011;20816;50.950;11.108;2022-08-19T00:26:18;9.63;;;6.35;;
34585;SDS011;20816;50.950;11.108;2022-08-19T00:28:45;8.05;;;5.70;;
34585;SDS011;20816;50.950;11.108;2022-08-19T00:31:13;8.43;;;6.53;;
34585;SDS011;20816;50.950;11.108;2022-08-19T00:33:39;11.63;;;6.70;;
34585;SDS011;20816;50.950;11.108;2022-08-19T00:36:06;7.10;;;5.85;;
34585;SDS011;20816;50.950;11.108;2022-08-19T00:38:35;8.65;;;5.72;;
34585;SDS011;20816;50.950;11.108;2022-08-19T00:41:06;8.18;;;6.25;;
34585;SDS011;20816;50.950;11.108;2022-08-19T00:43:33;9.55;;;6.13;;
34585;SDS011;20816;50.950;11.108;2022-08-19T00:46:00;6.95;;;5.72;;
34585;SDS011;20816;50.950;11.108;2022-08-19T00:48:31;13.57;;;8.65;;
34585;SDS011;20816;50.950;11.108;2022-08-19T00:50:59;12.75;;;6.65;;
34585;SDS011;20816;50.950;11.108;2022-08-19T00:53:28;7.80;;;6.10;;
34585;SDS011;20816;50.950;11.108;2022-08-19T00:55:56;12.45;;;7.20;;
34585;SDS011;20816;50.950;11.108;2022-08-19T00:58:27;7.72;;;5.82;;
34585;SDS011;20816;50.950;11.108;2022-08-19T01:00:56;10.55;;;6.00;;
34585;SDS011;20816;50.950;11.108;2022-08-19T01:03:23;8.88;;;5.38;;
34585;SDS011;20816;50.950;11.108;2022-08-19T01:05:50;9.13;;;6.50;;
34585;SDS011;20816;50.950;11.108;2022-08-19T01:08:20;9.32;;;6.00;;
34585;SDS011;20816;50.950;11.108;2022-08-19T01:10:49;8.18;;;6.28;;
34585;SDS011;20816;50.950;11.108;2022-08-19T01:13:22;10.43;;;6.80;;
34585;SDS011;20816;50.950;11.108;2022-08-19T01:15:55;8.38;;;6.25;;
34585;SDS011;20816;50.950;11.108;2022-08-19T01:18:26;8.10;;;5.55;;
34585;SDS011;20816;50.950;11.108;2022-08-19T01:20:54;10.07;;;5.82;;
34585;SDS011;20816;50.950;11.108;2022-08-19T01:23:24;8.98;;;6.75;;
34585;SDS011;20816;50.950;11.108;2022-08-19T01:26:14;10.13;;;5.50;;
34585;SDS011;20816;50.950;11.108;2022-08-19T01:28:44;7.35;;;5.78;;
34585;SDS011;20816;50.950;11.108;2022-08-19T01:31:15;10.75;;;6.55;;
34585;SDS011;20816;50.950;11.108;2022-08-19T01:33:53;8.23;;;6.15;;
34585;SDS011;20816;50.950;11.108;2022-08-19T01:36:27;11.95;;;7.28;;
34585;SDS011;20816;50.950;11.108;2022-08-19T01:39:16;7.45;;;5.47;;
34585;SDS011;20816;50.950;11.108;2022-08-19T01:41:47;11.60;;;7.18;;
34585;SDS011;20816;50.950;11.108;2022-08-19T01:44:14;8.60;;;6.65;;
34585;SDS011;20816;50.950;11.108;2022-08-19T01:46:44;7.60;;;5.18;;
34585;SDS011;20816;50.950;11.108;2022-08-19T01:49:14;10.02;;;6.10;;
34585;SDS011;20816;50.950;11.108;2022-08-19T01:51:42;6.93;;;5.93;;
34585;SDS011;20816;50.950;11.108;2022-08-19T01:54:09;11.43;;;6.45;;
34585;SDS011;20816;50.950;11.108;2022-08-19T01:56:38;9.48;;;6.57;;
34585;SDS011;20816;50.950;11.108;2022-08-19T01:59:08;9.02;;;6.75;;
34585;SDS011;20816;50.950;11.108;2022-08-19T02:01:38;7.43;;;5.70;;
34585;SDS011;20816;50.950;11.108;2022-08-19T02:04:05;8.52;;;6.18;;
34585;SDS011;20816;50.950;11.108;2022-08-19T02:06:32;10.45;;;7.13;;
34585;SDS011;20816;50.950;11.108;2022-08-19T02:09:00;9.10;;;6.40;;
34585;SDS011;20816;50.950;11.108;2022-08-19T02:11:32;7.65;;;5.93;;
34585;SDS011;20816;50.950;11.108;2022-08-19T02:14:01;8.68;;;6.07;;
34585;SDS011;20816;50.950;11.108;2022-08-19T02:16:29;10.98;;;5.90;;
34585;SDS011;20816;50.950;11.108;2022-08-19T02:18:57;7.15;;;5.55;;
34585;SDS011;20816;50.950;11.108;2022-08-19T02:21:27;9.82;;;6.20;;
34585;SDS011;20816;50.950;11.108;2022-08-19T02:23:54;8.75;;;5.97;;
34585;SDS011;20816;50.950;11.108;2022-08-19T02:26:21;9.20;;;6.35;;
34585;SDS011;20816;50.950;11.108;2022-08-19T02:28:48;10.75;;;6.78;;
34585;SDS011;20816;50.950;11.108;2022-08-19T02:31:16;8.48;;;5.85;;
34585;SDS011;20816;50.950;11.108;2022-08-19T02:33:44;10.13;;;6.07;;
34585;SDS011;20816;50.950;11.108;2022-08-19T02:36:12;9.98;;;6.90;;
34585;SDS011;20816;50.950;11.108;2022-08-19T02:38:40;7.78;;;5.75;;
34585;SDS011;20816;50.950;11.108;2022-08-19T02:41:16;8.70;;;6.47;;
34585;SDS011;20816;50.950;11.108;2022-08-19T02:43:46;10.20;;;7.32;;
34585;SDS011;20816;50.950;11.108;2022-08-19T02:46:34;8.50;;;6.78;;
34585;SDS011;20816;50.950;11.108;2022-08-19T02:49:04;10.23;;;6.18;;
34585;SDS011;20816;50.950;11.108;2022-08-19T02:51:36;9.70;;;6.80;;
34585;SDS011;20816;50.950;11.108;2022-08-19T02:54:06;10.43;;;7.90;;
34585;SDS011;20816;50.950;11.108;2022-08-19T02:56:36;9.70;;;6.88;;
34585;SDS011;20816;50.950;11.108;2022-08-19T02:59:04;12.45;;;7.90;;
34585;SDS011;20816;50.950;11.108;2022-08-19T03:01:37;9.02;;;6.55;;
34585;SDS011;20816;50.950;11.108;2022-08-19T03:04:10;9.57;;;6.95;;
34585;SDS011;20816;50.950;11.108;2022-08-19T03:06:43;10.35;;;6.68;;
34585;SDS011;20816;50.950;11.108;2022-08-19T03:09:11;10.60;;;6.90;;
34585;SDS011;20816;50.950;11.108;2022-08-19T03:11:39;11.23;;;7.82;;
34585;SDS011;20816;50.950;11.108;2022-08-19T03:14:07;8.65;;;6.43;;
34585;SDS011;20816;50.950;11.108;2022-08-19T03:16:39;9.57;;;6.60;;
34585;SDS011;20816;50.950;11.108;2022-08-19T03:19:09;11.82;;;7.47;;
34585;SDS011;20816;50.950;11.108;2022-08-19T03:21:35;9.27;;;6.70;;
34585;SDS011;20816;50.950;11.108;2022-08-19T03:24:03;7.72;;;5.68;;
34585;SDS011;20816;50.950;11.108;2022-08-19T03:26:32;9.82;;;6.22;;
34585;SDS011;20816;50.950;11.108;2022-08-19T03:29:03;10.77;;;6.40;;
34585;SDS011;20816;50.950;11.108;2022-08-19T03:31:31;10.32;;;7.47;;
34585;SDS011;20816;50.950;11.108;2022-08-19T03:34:15;10.82;;;7.78;;
34585;SDS011;20816;50.950;11.108;2022-08-19T03:36:45;15.15;;;7.32;;
34585;SDS011;20816;50.950;11.108;2022-08-19T03:39:13;11.15;;;7.72;;
34585;SDS011;20816;50.950;11.108;2022-08-19T03:41:42;11.35;;;6.97;;
34585;SDS011;20816;50.950;11.108;2022-08-19T03:44:14;12.43;;;8.57;;
34585;SDS011;20816;50.950;11.108;2022-08-19T03:46:48;11.05;;;8.02;;
34585;SDS011;20816;50.950;11.108;2022-08-19T03:49:16;10.18;;;7.18;;
34585;SDS011;20816;50.950;11.108;2022-08-19T03:51:45;10.10;;;6.93;;
34585;SDS011;20816;50.950;11.108;2022-08-19T03:54:13;9.65;;;6.55;;
34585;SDS011;20816;50.950;11.108;2022-08-19T03:56:42;11.43;;;7.45;;
34585;SDS011;20816;50.950;11.108;2022-08-19T03:59:11;10.77;;;7.70;;
34585;SDS011;20816;50.950;11.108;2022-08-19T04:01:41;11.75;;;7.95;;
34585;SDS011;20816;50.950;11.108;2022-08-19T04:04:08;14.25;;;7.80;;
34585;SDS011;20816;50.950;11.108;2022-08-19T04:06:36;14.55;;;7.53;;
34585;SDS011;20816;50.950;11.108;2022-08-19T04:09:06;13.57;;;8.13;;
34585;SDS011;20816;50.950;11.108;2022-08-19T04:11:38;11.30;;;7.25;;
34585;SDS011;20816;50.950;11.108;2022-08-19T04:14:11;11.23;;;7.70;;
34585;SDS011;20816;50.950;11.108;2022-08-19T04:16:40;13.50;;;8.07;;
34585;SDS011;20816;50.950;11.108;2022-08-19T04:19:07;13.00;;;8.70;;
34585;SDS011;20816;50.950;11.108;2022-08-19T04:21:34;12.13;;;8.65;;
34585;SDS011;20816;50.950;11.108;2022-08-19T04:24:00;11.30;;;7.03;;
34585;SDS011;20816;50.950;11.108;2022-08-19T04:26:33;11.85;;;7.97;;
34585;SDS011;20816;50.950;11.108;2022-08-19T04:29:03;12.05;;;7.78;;
34585;SDS011;20816;50.950;11.108;2022-08-19T04:31:38;12.30;;;7.50;;
34585;SDS011;20816;50.950;11.108;2022-08-19T04:34:07;11.82;;;8.45;;
34585;SDS011;20816;50.950;11.108;2022-08-19T04:36:37;9.93;;;7.97;;
34585;SDS011;20816;50.950;11.108;2022-08-19T04:39:08;13.27;;;7.10;;
34585;SDS011;20816;50.950;11.108;2022-08-19T04:41:42;13.77;;;9.00;;
34585;SDS011;20816;50.950;11.108;2022-08-19T04:44:29;13.73;;;8.88;;
34585;SDS011;20816;50.950;11.108;2022-08-19T04:46:58;15.00;;;9.07;;
34585;SDS011;20816;50.950;11.108;2022-08-19T04:49:26;15.15;;;9.00;;
34585;SDS011;20816;50.950;11.108;2022-08-19T04:51:53;16.67;;;10.05;;
34585;SDS011;20816;50.950;11.108;2022-08-19T04:54:22;12.90;;;8.48;;
34585;SDS011;20816;50.950;11.108;2022-08-19T04:57:03;16.00;;;9.15;;
34585;SDS011;20816;50.950;11.108;2022-08-19T04:59:32;14.90;;;10.15;;
34585;SDS011;20816;50.950;11.108;2022-08-19T05:01:59;14.25;;;9.05;;
34585;SDS011;20816;50.950;11.108;2022-08-19T05:04:26;13.57;;;9.25;;
34585;SDS011;20816;50.950;11.108;2022-08-19T05:06:58;15.68;;;10.35;;
34585;SDS011;20816;50.950;11.108;2022-08-19T05:09:27;17.70;;;10.05;;
34585;SDS011;20816;50.950;11.108;2022-08-19T05:12:15;17.15;;;11.65;;
34585;SDS011;20816;50.950;11.108;2022-08-19T05:14:43;14.82;;;9.85;;
34585;SDS011;20816;50.950;11.108;2022-08-19T05:17:11;16.50;;;9.48;;
34585;SDS011;20816;50.950;11.108;2022-08-19T05:19:58;17.48;;;12.32;;
34585;SDS011;20816;50.950;11.108;2022-08-19T05:22:44;16.00;;;10.82;;
34585;SDS011;20816;50.950;11.108;2022-08-19T05:25:15;13.93;;;10.18;;
34585;SDS011;20816;50.950;11.108;2022-08-19T05:27:46;20.63;;;11.18;;
34585;SDS011;20816;50.950;11.108;2022-08-19T05:30:13;15.95;;;10.07;;
34585;SDS011;20816;50.950;11.108;2022-08-19T05:32:41;19.45;;;11.32;;
34585;SDS011;20816;50.950;11.108;2022-08-19T05:35:08;17.70;;;9.85;;
34585;SDS011;20816;50.950;11.108;2022-08-19T05:37:35;16.73;;;10.40;;
34585;SDS011;20816;50.950;11.108;2022-08-19T05:40:02;17.23;;;10.70;;
34585;SDS011;20816;50.950;11.108;2022-08-19T05:42:30;19.38;;;10.88;;
34585;SDS011;20816;50.950;11.108;2022-08-19T05:44:57;17.08;;;10.77;;
34585;SDS011;20816;50.950;11.108;2022-08-19T05:47:24;15.90;;;10.15;;
34585;SDS011;20816;50.950;11.108;2022-08-19T05:49:50;13.60;;;9.98;;
34585;SDS011;20816;50.950;11.108;2022-08-19T05:52:17;16.20;;;11.40;;
34585;SDS011;20816;50.950;11.108;2022-08-19T05:54:51;16.50;;;10.93;;
34585;SDS011;20816;50.950;11.108;2022-08-19T05:57:22;17.17;;;10.77;;
34585;SDS011;20816;50.950;11.108;2022-08-19T05:59:49;19.80;;;10.60;;
34585;SDS011;20816;50.950;11.108;2022-08-19T06:02:23;15.98;;;10.13;;
34585;SDS011;20816;50.950;11.108;2022-08-19T06:04:51;16.35;;;10.98;;
34585;SDS011;20816;50.950;11.108;2022-08-19T06:07:18;14.82;;;10.48;;
34585;SDS011;20816;50.950;11.108;2022-08-19T06:09:45;16.85;;;10.30;;
34585;SDS011;20816;50.950;11.108;2022-08-19T06:12:25;13.32;;;9.63;;
34585;SDS011;20816;50.950;11.108;2022-08-19T06:14:56;13.80;;;9.57;;
34585;SDS011;20816;50.950;11.108;2022-08-19T06:17:26;14.68;;;9.82;;
34585;SDS011;20816;50.950;11.108;2022-08-19T06:19:53;14.32;;;9.02;;
34585;SDS011;20816;50.950;11.108;2022-08-19T06:22:20;16.33;;;9.25;;
34585;SDS011;20816;50.950;11.108;2022-08-19T06:24:47;11.07;;;8.15;;
34585;SDS011;20816;50.950;11.108;2022-08-19T06:27:13;11.68;;;8.20;;
34585;SDS011;20816;50.950;11.108;2022-08-19T06:29:42;15.70;;;8.77;;
34585;SDS011;20816;50.950;11.108;2022-08-19T06:32:08;12.27;;;8.13;;
34585;SDS011;20816;50.950;11.108;2022-08-19T06:34:35;15.07;;;8.18;;
34585;SDS011;20816;50.950;11.108;2022-08-19T06:37:02;10.80;;;7.88;;
34585;SDS011;20816;50.950;11.108;2022-08-19T06:39:30;9.68;;;7.15;;
34585;SDS011;20816;50.950;11.108;2022-08-19T06:42:00;12.63;;;7.85;;
34585;SDS011;20816;50.950;11.108;2022-08-19T06:44:30;10.02;;;7.88;;
34585;SDS011;20816;50.950;11.108;2022-08-19T06:47:08;12.85;;;6.90;;
34585;SDS011;20816;50.950;11.108;2022-08-19T06:49:40;10.75;;;7.30;;
34585;SDS011;20816;50.950;11.108;2022-08-19T06:52:07;10.82;;;7.13;;
34585;SDS011;20816;50.950;11.108;2022-08-19T06:54:39;8.52;;;6.25;;
34585;SDS011;20816;50.950;11.108;2022-08-19T06:57:21;8.02;;;6.07;;
34585;SDS011;20816;50.950;11.108;2022-08-19T06:59:48;7.85;;;5.40;;
34585;SDS011;20816;50.950;11.108;2022-08-19T07:02:14;10.07;;;6.03;;
34585;SDS011;20816;50.950;11.108;2022-08-19T07:04:41;8.05;;;5.38;;
34585;SDS011;20816;50.950;11.108;2022-08-19T07:07:14;6.18;;;5.00;;
34585;SDS011;20816;50.950;11.108;2022-08-19T07:09:46;8.73;;;5.47;;
34585;SDS011;20816;50.950;11.108;2022-08-19T07:12:25;10.70;;;4.68;;
34585;SDS011;20816;50.950;11.108;2022-08-19T07:14:56;7.18;;;4.82;;
34585;SDS011;20816;50.950;11.108;2022-08-19T07:17:24;7.32;;;4.78;;
34585;SDS011;20816;50.950;11.108;2022-08-19T07:19:52;5.93;;;5.00;;
34585;SDS011;20816;50.950;11.108;2022-08-19T07:22:20;6.95;;;4.68;;
34585;SDS011;20816;50.950;11.108;2022-08-19T07:24:49;8.25;;;4.18;;
34585;SDS011;20816;50.950;11.108;2022-08-19T07:27:17;7.28;;;5.03;;
34585;SDS011;20816;50.950;11.108;2022-08-19T07:29:49;8.20;;;4.25;;
34585;SDS011;20816;50.950;11.108;2022-08-19T07:32:21;6.38;;;3.70;;
34585;SDS011;20816;50.950;11.108;2022-08-19T07:34:48;3.55;;;2.83;;
34585;SDS011;20816;50.950;11.108;2022-08-19T07:37:15;4.20;;;3.72;;
34585;SDS011;20816;50.950;11.108;2022-08-19T07:39:42;4.20;;;3.03;;
34585;SDS011;20816;50.950;11.108;2022-08-19T07:42:09;6.70;;;3.90;;
34585;SDS011;20816;50.950;11.108;2022-08-19T07:44:39;5.88;;;2.67;;
34585;SDS011;20816;50.950;11.108;2022-08-19T07:47:07;8.98;;;3.65;;
34585;SDS011;20816;50.950;11.108;2022-08-19T07:49:53;4.55;;;3.33;;
34585;SDS011;20816;50.950;11.108;2022-08-19T07:52:20;5.10;;;3.03;;
34585;SDS011;20816;50.950;11.108;2022-08-19T07:54:48;5.47;;;3.53;;
34585;SDS011;20816;50.950;11.108;2022-08-19T07:57:16;5.57;;;2.35;;
34585;SDS011;20816;50.950;11.108;2022-08-19T07:59:42;5.20;;;2.85;;
34585;SDS011;20816;50.950;11.108;2022-08-19T08:02:09;3.22;;;2.92;;
34585;SDS011;20816;50.950;11.108;2022-08-19T08:04:36;5.13;;;2.85;;
34585;SDS011;20816;50.950;11.108;2022-08-19T08:07:21;6.30;;;2.67;;
34585;SDS011;20816;50.950;11.108;2022-08-19T08:10:11;4.13;;;2.65;;
34585;SDS011;20816;50.950;11.108;2022-08-19T08:12:46;3.53;;;2.90;;
34585;SDS011;20816;50.950;11.108;2022-08-19T08:15:33;3.42;;;2.10;;
34585;SDS011;20816;50.950;11.108;2022-08-19T08:18:06;4.68;;;2.55;;
34585;SDS011;20816;50.950;11.108;2022-08-19T08:20:34;3.55;;;2.70;;
34585;SDS011;20816;50.950;11.108;2022-08-19T08:23:01;3.13;;;2.50;;
34585;SDS011;20816;50.950;11.108;2022-08-19T08:25:46;5.93;;;2.65;;
34585;SDS011;20816;50.950;11.108;2022-08-19T08:28:15;2.40;;;2.20;;
34585;SDS011;20816;50.950;11.108;2022-08-19T08:30:43;2.28;;;1.92;;
34585;SDS011;20816;50.950;11.108;2022-08-19T08:33:12;2.75;;;2.20;;
34585;SDS011;20816;50.950;11.108;2022-08-19T08:35:40;2.42;;;1.98;;
34585;SDS011;20816;50.950;11.108;2022-08-19T08:38:11;3.35;;;2.22;;
34585;SDS011;20816;50.950;11.108;2022-08-19T08:45:41;3.13;;;1.60;;
34585;SDS011;20816;50.950;11.108;2022-08-19T08:49:04;4.47;;;1.88;;
34585;SDS011;20816;50.950;11.108;2022-08-19T08:51:19;2.00;;;1.70;;
34585;SDS011;20816;50.950;11.108;2022-08-19T08:53:59;3.72;;;1.95;;
34585;SDS011;20816;50.950;11.108;2022-08-19T08:56:28;2.45;;;1.30;;
34585;SDS011;20816;50.950;11.108;2022-08-19T08:58:59;2.83;;;1.85;;
34585;SDS011;20816;50.950;11.108;2022-08-19T09:01:30;2.35;;;1.88;;
34585;SDS011;20816;50.950;11.108;2022-08-19T09:03:56;2.53;;;1.77;;
34585;SDS011;20816;50.950;11.108;2022-08-19T09:06:44;2.35;;;1.58;;
34585;SDS011;20816;50.950;11.108;2022-08-19T09:09:26;3.47;;;1.80;;
34585;SDS011;20816;50.950;11.108;2022-08-19T09:14:53;2.33;;;1.27;;
34585;SDS011;20816;50.950;11.108;2022-08-19T09:17:25;6.95;;;2.08;;
34585;SDS011;20816;50.950;11.108;2022-08-19T09:19:58;1.73;;;1.63;;
34585;SDS011;20816;50.950;11.108;2022-08-19T09:22:37;3.65;;;1.75;;
34585;SDS011;20816;50.950;11.108;2022-08-19T09:25:05;2.17;;;1.45;;
34585;SDS011;20816;50.950;11.108;2022-08-19T09:27:36;2.45;;;1.10;;
34585;SDS011;20816;50.950;11.108;2022-08-19T09:30:10;0.70;;;0.70;;
34585;SDS011;20816;50.950;11.108;2022-08-19T09:32:41;2.00;;;1.17;;
34585;SDS011;20816;50.950;11.108;2022-08-19T09:35:09;2.95;;;1.00;;
34585;SDS011;20816;50.950;11.108;2022-08-19T09:37:37;2.03;;;1.42;;
34585;SDS011;20816;50.950;11.108;2022-08-19T09:40:05;1.23;;;0.90;;
34585;SDS011;20816;50.950;11.108;2022-08-19T09:42:36;1.80;;;0.88;;
34585;SDS011;20816;50.950;11.108;2022-08-19T09:45:15;3.63;;;1.60;;
34585;SDS011;20816;50.950;11.108;2022-08-19T09:47:43;1.65;;;1.02;;
34585;SDS011;20816;50.950;11.108;2022-08-19T09:50:12;0.80;;;0.80;;
34585;SDS011;20816;50.950;11.108;2022-08-19T09:52:41;1.10;;;0.85;;
34585;SDS011;20816;50.950;11.108;2022-08-19T09:55:23;1.30;;;1.08;;
34585;SDS011;20816;50.950;11.108;2022-08-19T09:57:58;4.93;;;1.13;;
34585;SDS011;20816;50.950;11.108;2022-08-19T10:00:26;1.00;;;0.90;;
34585;SDS011;20816;50.950;11.108;2022-08-19T10:02:53;4.22;;;1.23;;
34585;SDS011;20816;50.950;11.108;2022-08-19T10:05:19;1.98;;;1.13;;
34585;SDS011;20816;50.950;11.108;2022-08-19T10:08:08;1.02;;;0.80;;
34585;SDS011;20816;50.950;11.108;2022-08-19T10:10:38;2.85;;;1.15;;
34585;SDS011;20816;50.950;11.108;2022-08-19T10:13:13;1.38;;;0.85;;
34585;SDS011;20816;50.950;11.108;2022-08-19T10:15:42;1.20;;;0.90;;
34585;SDS011;20816;50.950;11.108;2022-08-19T10:18:13;2.00;;;1.45;;
34585;SDS011;20816;50.950;11.108;2022-08-19T10:20:40;1.63;;;1.23;;
34585;SDS011;20816;50.950;11.108;2022-08-19T10:23:08;6.97;;;1.65;;
34585;SDS011;20816;50.950;11.108;2022-08-19T10:25:35;1.73;;;1.10;;
34585;SDS011;20816;50.950;11.108;2022-08-19T10:28:03;1.20;;;1.13;;
34585;SDS011;20816;50.950;11.108;2022-08-19T10:30:36;3.22;;;1.25;;
34585;SDS011;20816;50.950;11.108;2022-08-19T10:33:04;1.08;;;0.98;;
34585;SDS011;20816;50.950;11.108;2022-08-19T10:35:36;2.95;;;1.08;;
34585;SDS011;20816;50.950;11.108;2022-08-19T10:38:22;2.33;;;1.05;;
34585;SDS011;20816;50.950;11.108;2022-08-19T10:40:58;2.03;;;0.82;;
34585;SDS011;20816;50.950;11.108;2022-08-19T10:43:33;6.72;;;1.63;;
34585;SDS011;20816;50.950;11.108;2022-08-19T10:46:02;1.08;;;0.85;;
34585;SDS011;20816;50.950;11.108;2022-08-19T10:48:35;1.63;;;1.05;;
34585;SDS011;20816;50.950;11.108;2022-08-19T10:51:02;2.25;;;1.20;;
34585;SDS011;20816;50.950;11.108;2022-08-19T10:53:49;2.88;;;1.25;;
34585;SDS011;20816;50.950;11.108;2022-08-19T10:56:17;5.47;;;1.40;;
34585;SDS011;20816;50.950;11.108;2022-08-19T10:59:03;1.77;;;1.05;;
34585;SDS011;20816;50.950;11.108;2022-08-19T11:01:30;2.58;;;1.55;;
34585;SDS011;20816;50.950;11.108;2022-08-19T11:04:00;1.67;;;1.40;;
34585;SDS011;20816;50.950;11.108;2022-08-19T11:06:27;3.35;;;1.38;;
34585;SDS011;20816;50.950;11.108;2022-08-19T11:08:54;2.38;;;1.98;;
34585;SDS011;20816;50.950;11.108;2022-08-19T11:11:21;3.53;;;2.20;;
34585;SDS011;20816;50.950;11.108;2022-08-19T11:13:48;3.13;;;1.90;;
34585;SDS011;20816;50.950;11.108;2022-08-19T11:16:17;5.00;;;2.22;;
34585;SDS011;20816;50.950;11.108;2022-08-19T11:18:49;3.22;;;2.92;;
34585;SDS011;20816;50.950;11.108;2022-08-19T11:21:19;4.82;;;2.38;;
34585;SDS011;20816;50.950;11.108;2022-08-19T11:23:53;5.90;;;2.05;;
34585;SDS011;20816;50.950;11.108;2022-08-19T11:26:22;2.80;;;2.60;;
34585;SDS011;20816;50.950;11.108;2022-08-19T11:28:50;4.35;;;3.03;;
34585;SDS011;20816;50.950;11.108;2022-08-19T11:31:23;3.67;;;2.72;;
34585;SDS011;20816;50.950;11.108;2022-08-19T11:33:55;3.42;;;2.75;;
34585;SDS011;20816;50.950;11.108;2022-08-19T11:36:23;5.75;;;2.80;;
34585;SDS011;20816;50.950;11.108;2022-08-19T11:38:50;3.80;;;3.17;;
34585;SDS011;20816;50.950;11.108;2022-08-19T11:41:18;2.63;;;2.28;;
34585;SDS011;20816;50.950;11.108;2022-08-19T11:43:46;5.88;;;2.70;;
34585;SDS011;20816;50.950;11.108;2022-08-19T11:46:13;3.85;;;2.65;;
34585;SDS011;20816;50.950;11.108;2022-08-19T11:48:41;6.57;;;2.85;;
34585;SDS011;20816;50.950;11.108;2022-08-19T11:51:13;4.38;;;3.13;;
34585;SDS011;20816;50.950;11.108;2022-08-19T11:53:44;4.82;;;2.33;;
34585;SDS011;20816;50.950;11.108;2022-08-19T11:56:11;4.53;;;2.20;;
34585;SDS011;20816;50.950;11.108;2022-08-19T11:58:39;2.47;;;2.28;;
34585;SDS011;20816;50.950;11.108;2022-08-19T12:01:08;3.40;;;2.67;;
34585;SDS011;20816;50.950;11.108;2022-08-19T12:03:37;2.92;;;2.45;;
34585;SDS011;20816;50.950;11.108;2022-08-19T12:06:09;3.22;;;2.42;;
34585;SDS011;20816;50.950;11.108;2022-08-19T12:08:41;2.97;;;2.10;;
34585;SDS011;20816;50.950;11.108;2022-08-19T12:11:10;3.92;;;2.80;;
34585;SDS011;20816;50.950;11.108;2022-08-19T12:13:40;3.95;;;2.08;;
34585;SDS011;20816;50.950;11.108;2022-08-19T12:16:08;2.67;;;1.67;;
34585;SDS011;20816;50.950;11.108;2022-08-19T12:18:39;1.83;;;1.65;;
34585;SDS011;20816;50.950;11.108;2022-08-19T12:21:09;3.15;;;1.60;;
34585;SDS011;20816;50.950;11.108;2022-08-19T12:23:37;3.20;;;1.75;;
34585;SDS011;20816;50.950;11.108;2022-08-19T12:26:04;2.63;;;1.38;;
34585;SDS011;20816;50.950;11.108;2022-08-19T12:28:31;1.90;;;1.42;;
34585;SDS011;20816;50.950;11.108;2022-08-19T12:30:57;1.83;;;1.70;;
34585;SDS011;20816;50.950;11.108;2022-08-19T12:33:24;2.60;;;1.23;;
34585;SDS011;20816;50.950;11.108;2022-08-19T12:35:54;2.30;;;1.33;;
34585;SDS011;20816;50.950;11.108;2022-08-19T12:38:21;3.10;;;1.02;;
34585;SDS011;20816;50.950;11.108;2022-08-19T12:40:51;2.42;;;1.50;;
34585;SDS011;20816;50.950;11.108;2022-08-19T12:43:23;1.95;;;1.10;;
34585;SDS011;20816;50.950;11.108;2022-08-19T12:45:51;2.05;;;1.10;;
34585;SDS011;20816;50.950;11.108;2022-08-19T12:48:17;3.55;;;1.10;;
34585;SDS011;20816;50.950;11.108;2022-08-19T12:50:59;4.95;;;1.48;;
34585;SDS011;20816;50.950;11.108;2022-08-19T12:53:28;3.40;;;1.33;;
34585;SDS011;20816;50.950;11.108;2022-08-19T12:55:55;2.70;;;1.40;;
34585;SDS011;20816;50.950;11.108;2022-08-19T12:58:24;2.30;;;1.00;;
34585;SDS011;20816;50.950;11.108;2022-08-19T13:00:52;2.63;;;1.42;;
34585;SDS011;20816;50.950;11.108;2022-08-19T13:03:19;1.80;;;1.58;;
34585;SDS011;20816;50.950;11.108;2022-08-19T13:05:50;1.77;;;1.08;;
34585;SDS011;20816;50.950;11.108;2022-08-19T13:08:17;3.10;;;1.13;;
34585;SDS011;20816;50.950;11.108;2022-08-19T13:10:43;1.30;;;1.20;;
34585;SDS011;20816;50.950;11.108;2022-08-19T13:13:10;4.15;;;1.20;;
34585;SDS011;20816;50.950;11.108;2022-08-19T13:15:38;3.30;;;1.00;;
34585;SDS011;20816;50.950;11.108;2022-08-19T13:18:07;0.70;;;0.70;;
34585;SDS011;20816;50.950;11.108;2022-08-19T13:20:36;1.38;;;1.15;;
34585;SDS011;20816;50.950;11.108;2022-08-19T13:23:03;1.42;;;1.33;;
34585;SDS011;20816;50.950;11.108;2022-08-19T13:25:30;2.33;;;0.98;;
34585;SDS011;20816;50.950;11.108;2022-08-19T13:27:58;1.02;;;0.93;;
34585;SDS011;20816;50.950;11.108;2022-08-19T13:30:25;1.67;;;0.70;;
34585;SDS011;20816;50.950;11.108;2022-08-19T13:33:11;1.35;;;1.20;;
34585;SDS011;20816;50.950;11.108;2022-08-19T13:35:38;1.33;;;1.23;;
34585;SDS011;20816;50.950;11.108;2022-08-19T13:38:05;0.88;;;0.77;;
34585;SDS011;20816;50.950;11.108;2022-08-19T13:40:37;3.08;;;1.08;;
34585;SDS011;20816;50.950;11.108;2022-08-19T13:43:06;1.48;;;1.15;;
34585;SDS011;20816;50.950;11.108;2022-08-19T13:45:48;3.08;;;1.40;;
34585;SDS011;20816;50.950;11.108;2022-08-19T13:48:17;1.42;;;1.05;;
34585;SDS011;20816;50.950;11.108;2022-08-19T13:50:45;1.70;;;0.82;;
34585;SDS011;20816;50.950;11.108;2022-08-19T13:53:13;0.80;;;0.80;;
34585;SDS011;20816;50.950;11.108;2022-08-19T13:55:41;1.35;;;0.80;;
34585;SDS011;20816;50.950;11.108;2022-08-19T13:58:09;1.33;;;0.90;;
34585;SDS011;20816;50.950;11.108;2022-08-19T14:00:41;0.70;;;0.70;;
34585;SDS011;20816;50.950;11.108;2022-08-19T14:03:10;1.40;;;1.30;;
34585;SDS011;20816;50.950;11.108;2022-08-19T14:05:37;4.95;;;0.90;;
34585;SDS011;20816;50.950;11.108;2022-08-19T14:08:04;1.45;;;0.77;;
34585;SDS011;20816;50.950;11.108;2022-08-19T14:10:31;1.17;;;0.70;;
34585;SDS011;20816;50.950;11.108;2022-08-19T14:12:59;2.83;;;1.20;;
34585;SDS011;20816;50.950;11.108;2022-08-19T14:15:28;0.82;;;0.60;;
34585;SDS011;20816;50.950;11.108;2022-08-19T14:17:56;1.75;;;0.70;;
34585;SDS011;20816;50.950;11.108;2022-08-19T14:20:23;1.45;;;1.05;;
34585;SDS011;20816;50.950;11.108;2022-08-19T14:22:51;3.55;;;1.13;;
34585;SDS011;20816;50.950;11.108;2022-08-19T14:25:22;1.15;;;0.80;;
34585;SDS011;20816;50.950;11.108;2022-08-19T14:27:52;1.10;;;0.90;;
34585;SDS011;20816;50.950;11.108;2022-08-19T14:30:27;1.13;;;0.88;;
34585;SDS011;20816;50.950;11.108;2022-08-19T14:32:57;0.98;;;0.80;;
34585;SDS011;20816;50.950;11.108;2022-08-19T14:35:26;2.92;;;0.90;;
34585;SDS011;20816;50.950;11.108;2022-08-19T14:37:55;1.30;;;0.88;;
34585;SDS011;20816;50.950;11.108;2022-08-19T14:40:23;1.00;;;0.68;;
34585;SDS011;20816;50.950;11.108;2022-08-19T14:42:52;2.05;;;0.90;;
34585;SDS011;20816;50.950;11.108;2022-08-19T14:45:21;1.02;;;1.00;;
34585;SDS011;20816;50.950;11.108;2022-08-19T14:47:48;0.90;;;0.80;;
34585;SDS011;20816;50.950;11.108;2022-08-19T14:50:16;1.48;;;0.90;;
34585;SDS011;20816;50.950;11.108;2022-08-19T14:52:44;1.00;;;0.88;;
34585;SDS011;20816;50.950;11.108;2022-08-19T14:55:11;0.80;;;0.80;;